^^
Your Local Weather - Clay, NY Station Historical Data
Daily Summary for February 1, 2017 Units:  English    Metric   Both
« Previous Day
Next Day »
Daily Weekly Monthly Yearly Custom
  High: Low: Average:
Temperature: 37.6 °F 23.6 °F 31.3 °F
Dew Point: 28.7 °F 20.3 °F 23.5 °F
Humidity: 92% 51% 74%
Wind Speed: 7.0mph 0.0mph 3.2mph
Wind Gust: 18.0mph - -
Wind- - WSW
Pressure: 29.98 in 29.69 in -
Precipitation: 0.10 in    
Historical Graphs
 
 
Tabular Data for February 1, 2017
Time Temperature Dew Point Pressure Wind Wind Speed Wind Gust Humidity Rainfall Rate (Hourly) solar
00:00 23.6 °F 20.8 °F 29.70 in ESE 1.0 mph 1.0 mph 89% 0.00 in 0 W/m2
00:06 23.6 °F 20.8 °F 29.69 in East 1.0 mph 2.0 mph 89% 0.00 in 0 W/m2
00:12 23.7 °F 20.9 °F 29.69 in East 1.0 mph 1.0 mph 89% 0.00 in 0 W/m2
00:18 23.7 °F 21.2 °F 29.69 in ENE 2.0 mph 3.0 mph 90% 0.00 in 0 W/m2
00:24 23.8 °F 21.3 °F 29.69 in East 2.0 mph 3.0 mph 90% 0.00 in 0 W/m2
00:30 23.8 °F 21.3 °F 29.69 in East 1.0 mph 1.0 mph 90% 0.00 in 0 W/m2
00:36 23.9 °F 21.4 °F 29.69 in Calm   1.0 mph 90% 0.00 in 0 W/m2
00:42 24.0 °F 21.5 °F 29.69 in Calm     90% 0.00 in 0 W/m2
00:48 24.0 °F 21.5 °F 29.69 in East 1.0 mph 1.0 mph 90% 0.00 in 0 W/m2
00:54 24.1 °F 21.6 °F 29.69 in Calm   1.0 mph 90% 0.00 in 0 W/m2
01:00 24.1 °F 21.6 °F 29.69 in Calm     90% 0.00 in 0 W/m2
01:06 24.2 °F 21.7 °F 29.69 in Calm   2.0 mph 90% 0.00 in 0 W/m2
01:12 24.2 °F 21.7 °F 29.69 in Calm   1.0 mph 90% 0.00 in 0 W/m2
01:18 24.3 °F 21.8 °F 29.69 in Calm   1.0 mph 90% 0.00 in 0 W/m2
01:24 24.4 °F 21.9 °F 29.69 in ENE 1.0 mph 1.0 mph 90% 0.00 in 0 W/m2
01:30 24.4 °F 21.9 °F 29.69 in ENE 1.0 mph 1.0 mph 90% 0.00 in 0 W/m2
01:36 24.4 °F 22.2 °F 29.69 in Calm   1.0 mph 91% 0.00 in 0 W/m2
01:42 24.5 °F 22.2 °F 29.69 in Calm   1.0 mph 91% 0.00 in 0 W/m2
01:48 24.5 °F 22.2 °F 29.70 in Calm   1.0 mph 91% 0.00 in 0 W/m2
01:54 24.6 °F 22.3 °F 29.71 in Calm   1.0 mph 91% 0.00 in 0 W/m2
02:00 24.7 °F 22.4 °F 29.71 in SE 1.0 mph 1.0 mph 91% 0.00 in 0 W/m2
02:06 24.7 °F 22.4 °F 29.71 in SE 1.0 mph 2.0 mph 91% 0.00 in 0 W/m2
02:12 24.8 °F 22.5 °F 29.71 in SSE 1.0 mph 1.0 mph 91% 0.00 in 0 W/m2
02:18 24.8 °F 22.5 °F 29.71 in Calm   1.0 mph 91% 0.00 in 0 W/m2
02:24 25.1 °F 22.8 °F 29.71 in Calm   1.0 mph 91% 0.00 in 0 W/m2
02:30 25.4 °F 23.1 °F 29.72 in Calm     91% 0.00 in 0 W/m2
02:36 25.8 °F 23.5 °F 29.72 in Calm   2.0 mph 91% 0.00 in 0 W/m2
02:42 26.3 °F 24.3 °F 29.72 in SW 1.0 mph 3.0 mph 92% 0.00 in 0 W/m2
02:48 26.8 °F 24.8 °F 29.72 in WSW 1.0 mph 3.0 mph 92% 0.00 in 0 W/m2
02:54 27.1 °F 25.1 °F 29.72 in Calm   1.0 mph 92% 0.00 in 0 W/m2
03:00 27.4 °F 25.4 °F 29.73 in Calm     92% 0.00 in 0 W/m2
03:06 27.8 °F 25.8 °F 29.72 in Calm   1.0 mph 92% 0.00 in 0 W/m2
03:12 28.2 °F 26.2 °F 29.73 in Calm   2.0 mph 92% 0.00 in 0 W/m2
03:18 28.6 °F 26.6 °F 29.73 in Calm   2.0 mph 92% 0.00 in 0 W/m2
03:24 29.0 °F 27.0 °F 29.73 in WSW 1.0 mph 3.0 mph 92% 0.00 in 0 W/m2
03:30 29.5 °F 27.5 °F 29.73 in West 1.0 mph 4.0 mph 92% 0.00 in 0 W/m2
03:36 30.2 °F 28.2 °F 29.73 in West 2.0 mph 5.0 mph 92% 0.00 in 0 W/m2
03:42 30.7 °F 28.7 °F 29.74 in West 3.0 mph 4.0 mph 92% 0.00 in 0 W/m2
03:48 30.8 °F 28.5 °F 29.74 in WSW 4.0 mph 4.0 mph 91% 0.00 in 0 W/m2
03:54 30.6 °F 28.3 °F 29.74 in West 5.0 mph 8.0 mph 91% 0.00 in 0 W/m2
04:00 30.5 °F 28.2 °F 29.74 in WSW 4.0 mph 4.0 mph 91% 0.00 in 0 W/m2
04:06 30.7 °F 28.4 °F 29.75 in WSW 4.0 mph 4.0 mph 91% 0.00 in 0 W/m2
04:12 30.6 °F 28.3 °F 29.75 in West 3.0 mph 5.0 mph 91% 0.00 in 0 W/m2
04:18 30.5 °F 27.9 °F 29.75 in SW 4.0 mph 5.0 mph 90% 0.00 in 0 W/m2
04:24 30.5 °F 27.6 °F 29.75 in WSW 5.0 mph 12.0 mph 89% 0.00 in 0 W/m2
04:30 30.6 °F 27.5 °F 29.75 in West 5.0 mph 5.0 mph 88% 0.00 in 0 W/m2
04:36 30.7 °F 27.0 °F 29.75 in WSW 5.0 mph 11.0 mph 86% 0.00 in 0 W/m2
04:42 30.8 °F 26.8 °F 29.75 in SW 5.0 mph 8.0 mph 85% 0.00 in 0 W/m2
04:48 30.9 °F 26.3 °F 29.75 in West 5.0 mph 8.0 mph 83% 0.00 in 0 W/m2
04:54 31.0 °F 26.1 °F 29.75 in SSW 5.0 mph 9.0 mph 82% 0.00 in 0 W/m2
05:00 31.0 °F 25.9 °F 29.75 in SW 5.0 mph 8.0 mph 81% 0.00 in 0 W/m2
05:06 31.0 °F 25.9 °F 29.75 in WSW 5.0 mph 8.0 mph 81% 0.00 in 0 W/m2
05:12 31.0 °F 25.6 °F 29.75 in WSW 4.0 mph 6.0 mph 80% 0.00 in 0 W/m2
05:18 31.1 °F 25.3 °F 29.76 in WSW 5.0 mph 10.0 mph 79% 0.00 in 0 W/m2
05:24 31.3 °F 25.2 °F 29.76 in South 5.0 mph 13.0 mph 78% 0.00 in 0 W/m2
05:30 31.3 °F 24.9 °F 29.76 in West 6.0 mph 6.0 mph 77% 0.00 in 0 W/m2
05:36 31.4 °F 24.7 °F 29.76 in WSW 5.0 mph 7.0 mph 76% 0.00 in 0 W/m2
05:42 31.5 °F 24.8 °F 29.77 in West 5.0 mph 10.0 mph 76% 0.00 in 0 W/m2
05:48 31.6 °F 24.6 °F 29.77 in WSW 6.0 mph 10.0 mph 75% 0.00 in 0 W/m2
05:54 31.5 °F 24.5 °F 29.77 in WSW 6.0 mph 15.0 mph 75% 0.00 in 0 W/m2
06:00 31.4 °F 24.7 °F 29.77 in SW 5.0 mph 5.0 mph 76% 0.00 in 0 W/m2
06:06 31.3 °F 24.6 °F 29.77 in WSW 4.0 mph 5.0 mph 76% 0.00 in 0 W/m2
06:12 31.3 °F 24.6 °F 29.77 in WSW 4.0 mph 4.0 mph 76% 0.00 in 0 W/m2
06:18 31.2 °F 24.8 °F 29.77 in SW 3.0 mph 5.0 mph 77% 0.00 in 0 W/m2
06:24 31.1 °F 24.7 °F 29.77 in WSW 3.0 mph 5.0 mph 77% 0.00 in 0 W/m2
06:30 31.0 °F 24.9 °F 29.77 in SW 3.0 mph 3.0 mph 78% 0.00 in 0 W/m2
06:36 30.9 °F 25.2 °F 29.77 in SSW 3.0 mph 10.0 mph 79% 0.00 in 0 W/m2
06:42 30.7 °F 25.0 °F 29.77 in West 4.0 mph 4.0 mph 79% 0.00 in 0 W/m2
06:48 30.4 °F 25.0 °F 29.78 in WSW 2.0 mph 5.0 mph 80% 0.00 in 0 W/m2
06:54 30.3 °F 24.9 °F 29.78 in WSW 2.0 mph 3.0 mph 80% 0.00 in 0 W/m2
07:00 30.1 °F 25.0 °F 29.78 in WSW 2.0 mph 2.0 mph 81% 0.00 in 0 W/m2
07:06 30.0 °F 24.6 °F 29.78 in West 2.0 mph 3.0 mph 80% 0.00 in 0 W/m2
07:12 30.1 °F 24.7 °F 29.78 in West 3.0 mph 5.0 mph 80% 0.00 in 0 W/m2
07:18 30.2 °F 24.8 °F 29.78 in West 2.0 mph 5.0 mph 80% 0.00 in 0 W/m2
07:24 30.1 °F 24.7 °F 29.78 in West 2.0 mph 3.0 mph 80% 0.00 in 0 W/m2
07:30 30.1 °F 24.7 °F 29.79 in West 1.0 mph 2.0 mph 80% 0.00 in 5 W/m2
07:36 30.0 °F 24.6 °F 29.79 in West 1.0 mph 2.0 mph 80% 0.00 in 5 W/m2
07:42 30.0 °F 24.6 °F 29.80 in West 1.0 mph 2.0 mph 80% 0.00 in 7 W/m2
07:48 30.1 °F 24.7 °F 29.80 in West 2.0 mph 3.0 mph 80% 0.00 in 11 W/m2
07:54 30.3 °F 24.6 °F 29.80 in West 2.0 mph 4.0 mph 79% 0.00 in 11 W/m2
08:00 30.5 °F 24.8 °F 29.80 in WNW 1.0 mph 1.0 mph 79% 0.00 in 14 W/m2
08:06 30.7 °F 24.7 °F 29.80 in WSW 2.0 mph 3.0 mph 78% 0.00 in 16 W/m2
08:12 30.8 °F 24.4 °F 29.80 in West 2.0 mph 6.0 mph 77% 0.00 in 16 W/m2
08:18 31.0 °F 24.3 °F 29.80 in WNW 3.0 mph 6.0 mph 76% 0.00 in 21 W/m2
08:24 31.2 °F 24.2 °F 29.80 in WSW 3.0 mph 7.0 mph 75% 0.00 in 23 W/m2
08:30 31.3 °F 24.3 °F 29.81 in West 3.0 mph 3.0 mph 75% 0.00 in 28 W/m2
08:36 31.5 °F 24.2 °F 29.80 in West 4.0 mph 4.0 mph 74% 0.00 in 30 W/m2
08:42 31.7 °F 24.0 °F 29.81 in West 4.0 mph 9.0 mph 73% 0.00 in 40 W/m2
08:48 31.7 °F 24.0 °F 29.81 in West 5.0 mph 9.0 mph 73% 0.00 in 49 W/m2
08:54 31.8 °F 24.1 °F 29.81 in NW 4.0 mph 4.0 mph 73% 0.00 in 58 W/m2
09:00 31.8 °F 23.8 °F 29.81 in West 5.0 mph 5.0 mph 72% 0.00 in 67 W/m2
09:06 31.9 °F 23.9 °F 29.81 in WNW 5.0 mph 6.0 mph 72% 0.00 in 79 W/m2
09:12 31.9 °F 23.9 °F 29.81 in WSW 4.0 mph 7.0 mph 72% 0.00 in 97 W/m2
09:18 32.1 °F 23.8 °F 29.81 in West 6.0 mph 7.0 mph 71% 0.00 in 125 W/m2
09:24 32.3 °F 23.9 °F 29.81 in WNW 5.0 mph 7.0 mph 71% 0.00 in 139 W/m2
09:30 32.5 °F 23.8 °F 29.81 in West 5.0 mph 5.0 mph 70% 0.00 in 178 W/m2
09:36 32.4 °F 23.4 °F 29.81 in SW 6.0 mph 7.0 mph 69% 0.00 in 239 W/m2
09:42 33.0 °F 23.6 °F 29.81 in WNW 5.0 mph 9.0 mph 68% 0.00 in 429 W/m2
09:48 32.8 °F 23.0 °F 29.81 in WNW 6.0 mph 10.0 mph 67% 0.00 in 193 W/m2
09:54 32.8 °F 23.0 °F 29.81 in WNW 7.0 mph 12.0 mph 67% 0.00 in 237 W/m2
10:00 33.4 °F 23.3 °F 29.81 in NW 6.0 mph 6.0 mph 66% 0.00 in 404 W/m2
10:06 33.6 °F 22.7 °F 29.82 in West 6.0 mph 10.0 mph 64% 0.00 in 420 W/m2
10:12 33.6 °F 22.7 °F 29.82 in West 7.0 mph 7.0 mph 64% 0.00 in 424 W/m2
10:18 34.2 °F 23.3 °F 29.82 in WNW 6.0 mph 7.0 mph 64% 0.00 in 431 W/m2
10:24 34.2 °F 22.9 °F 29.82 in SW 5.0 mph 7.0 mph 63% 0.04 in 438 W/m2
10:30 34.5 °F 23.2 °F 29.82 in SW 6.0 mph 6.0 mph 63% 0.04 in 448 W/m2
10:36 34.5 °F 22.4 °F 29.82 in West 5.0 mph 12.0 mph 61% 0.06 in 457 W/m2
10:42 34.7 °F 22.2 °F 29.82 in SW 5.0 mph 6.0 mph 60% 0.06 in 466 W/m2
10:48 34.8 °F 22.7 °F 29.83 in West 5.0 mph 10.0 mph 61% 0.04 in 543 W/m2
10:54 35.0 °F 22.5 °F 29.83 in West 6.0 mph 7.0 mph 60% 0.04 in 113 W/m2
11:00 34.6 °F 22.1 °F 29.83 in West 6.0 mph 7.0 mph 60% 0.04 in 443 W/m2
11:06 35.4 °F 23.3 °F 29.83 in WNW 5.0 mph 8.0 mph 61% 0.04 in 536 W/m2
11:12 35.2 °F 22.7 °F 29.83 in WSW 5.0 mph 7.0 mph 60% 0.04 in 276 W/m2
11:18 35.5 °F 23.0 °F 29.83 in West 5.0 mph 7.0 mph 60% 0.04 in 178 W/m2
11:24 35.2 °F 22.7 °F 29.83 in West 4.0 mph 5.0 mph 60% 0.00 in 160 W/m2
11:30 35.2 °F 22.3 °F 29.83 in WNW 5.0 mph 5.0 mph 59% 0.00 in 243 W/m2
11:36 35.1 °F 22.6 °F 29.83 in West 5.0 mph 5.0 mph 60% 0.00 in 304 W/m2
11:48 34.9 °F 22.8 °F 29.83 in WSW 5.0 mph 5.0 mph 61% 0.00 in 155 W/m2
11:54 35.1 °F 22.6 °F 29.83 in West 4.0 mph 5.0 mph 60% 0.00 in 149 W/m2
12:00 34.8 °F 22.3 °F 29.83 in West 4.0 mph 4.0 mph 60% 0.00 in 174 W/m2
12:06 34.7 °F 22.2 °F 29.83 in WNW 5.0 mph 5.0 mph 60% 0.00 in 211 W/m2
12:12 34.8 °F 22.3 °F 29.83 in West 4.0 mph 4.0 mph 60% 0.00 in 218 W/m2
12:18 34.9 °F 22.0 °F 29.83 in SW 5.0 mph 7.0 mph 59% 0.00 in 274 W/m2
12:24 35.2 °F 21.5 °F 29.83 in WNW 5.0 mph 6.0 mph 57% 0.00 in 163 W/m2
12:30 35.5 °F 22.2 °F 29.83 in WSW 5.0 mph 5.0 mph 58% 0.00 in 708 W/m2
12:35 36.3 °F 21.7 °F 29.83 in West 5.0 mph 6.0 mph 55% 0.00 in 301 W/m2
12:42 36.2 °F 21.6 °F 29.83 in WSW 6.0 mph 8.0 mph 55% 0.00 in 598 W/m2
12:48 36.8 °F 21.7 °F 29.82 in West 5.0 mph 8.0 mph 54% 0.00 in 455 W/m2
12:53 37.6 °F 22.4 °F 29.82 in West 4.0 mph 5.0 mph 54% 0.00 in 559 W/m2
13:00 37.1 °F 22.0 °F 29.83 in WSW 3.0 mph 3.0 mph 54% 0.00 in 193 W/m2
13:06 36.3 °F 20.8 °F 29.82 in NW 4.0 mph 8.0 mph 53% 0.00 in 246 W/m2
13:12 37.0 °F 21.9 °F 29.82 in SE 4.0 mph 4.0 mph 54% 0.00 in 457 W/m2
13:18 37.4 °F 20.9 °F 29.82 in West 4.0 mph 9.0 mph 51% 0.00 in 668 W/m2
13:23 37.0 °F 21.0 °F 29.82 in WSW 6.0 mph 7.0 mph 52% 0.00 in 708 W/m2
13:30 37.0 °F 21.0 °F 29.82 in WSW 6.0 mph 18.0 mph 52% 0.00 in 246 W/m2
13:36 36.4 °F 20.4 °F 29.82 in WNW 6.0 mph 18.0 mph 52% 0.00 in 420 W/m2
13:42 37.4 °F 20.9 °F 29.82 in WSW 6.0 mph 6.0 mph 51% 0.00 in 700 W/m2
13:48 37.1 °F 20.6 °F 29.83 in SW 6.0 mph 7.0 mph 51% 0.00 in 264 W/m2
13:53 36.5 °F 21.0 °F 29.83 in West 7.0 mph 8.0 mph 53% 0.00 in 230 W/m2
13:59 36.1 °F 21.0 °F 29.83 in West 7.0 mph 7.0 mph 54% 0.00 in 230 W/m2
14:05 36.2 °F 21.1 °F 29.83 in WSW 6.0 mph 9.0 mph 54% 0.00 in 178 W/m2
14:12 36.0 °F 21.4 °F 29.83 in West 5.0 mph 8.0 mph 55% 0.00 in 197 W/m2
14:18 36.1 °F 21.5 °F 29.84 in WSW 4.0 mph 8.0 mph 55% 0.00 in 174 W/m2
14:24 36.0 °F 21.4 °F 29.84 in West 5.0 mph 7.0 mph 55% 0.00 in 142 W/m2
14:30 36.0 °F 21.4 °F 29.84 in West 5.0 mph 5.0 mph 55% 0.00 in 146 W/m2
14:35 36.7 °F 21.6 °F 29.84 in WSW 4.0 mph 5.0 mph 54% 0.00 in 181 W/m2
14:42 36.3 °F 21.7 °F 29.84 in West 4.0 mph 4.0 mph 55% 0.00 in 139 W/m2
14:48 36.1 °F 21.9 °F 29.85 in West 3.0 mph 5.0 mph 56% 0.00 in 127 W/m2
14:54 36.1 °F 21.5 °F 29.85 in NW 3.0 mph 4.0 mph 55% 0.00 in 153 W/m2
15:00 36.1 °F 21.9 °F 29.85 in WNW 3.0 mph 7.0 mph 56% 0.00 in 120 W/m2
15:05 36.0 °F 21.4 °F 29.86 in WNW 4.0 mph 7.0 mph 55% 0.00 in 104 W/m2
15:12 35.8 °F 21.2 °F 29.86 in WNW 5.0 mph 5.0 mph 55% 0.00 in 88 W/m2
15:18 35.7 °F 21.1 °F 29.86 in West 4.0 mph 5.0 mph 55% 0.00 in 54 W/m2
15:23 35.5 °F 20.9 °F 29.87 in SW 5.0 mph 7.0 mph 55% 0.00 in 58 W/m2
15:30 35.3 °F 21.6 °F 29.87 in WNW 5.0 mph 5.0 mph 57% 0.00 in 69 W/m2
15:35 35.3 °F 22.0 °F 29.87 in WSW 3.0 mph 5.0 mph 58% 0.00 in 65 W/m2
15:42 35.3 °F 21.6 °F 29.87 in West 2.0 mph 3.0 mph 57% 0.00 in 109 W/m2
15:48 35.5 °F 22.2 °F 29.87 in WSW 2.0 mph 3.0 mph 58% 0.00 in 56 W/m2
15:54 35.4 °F 21.7 °F 29.87 in WNW 2.0 mph 7.0 mph 57% 0.00 in 62 W/m2
16:00 35.3 °F 21.6 °F 29.88 in WSW 3.0 mph 3.0 mph 57% 0.00 in 33 W/m2
16:06 35.2 °F 21.9 °F 29.89 in WSW 4.0 mph 4.0 mph 58% 0.00 in 26 W/m2
16:12 34.8 °F 23.5 °F 29.89 in West 5.0 mph 5.0 mph 63% 0.00 in 46 W/m2
16:18 33.9 °F 24.1 °F 29.90 in WNW 6.0 mph 10.0 mph 67% 0.00 in 70 W/m2
16:24 33.7 °F 24.3 °F 29.90 in WSW 5.0 mph 6.0 mph 68% 0.00 in 69 W/m2
16:29 33.8 °F 24.0 °F 29.90 in West 4.0 mph 4.0 mph 67% 0.00 in 63 W/m2
16:36 33.9 °F 24.1 °F 29.90 in WSW 3.0 mph 5.0 mph 67% 0.00 in 47 W/m2
16:42 33.9 °F 24.1 °F 29.90 in West 3.0 mph 5.0 mph 67% 0.00 in 44 W/m2
16:48 33.9 °F 24.1 °F 29.90 in WSW 3.0 mph 5.0 mph 67% 0.00 in 74 W/m2
16:54 33.9 °F 24.1 °F 29.90 in SW 4.0 mph 7.0 mph 67% 0.00 in 30 W/m2
16:59 33.6 °F 24.2 °F 29.91 in West 5.0 mph 5.0 mph 68% 0.00 in 21 W/m2
17:05 33.3 °F 24.2 °F 29.91 in WSW 4.0 mph 7.0 mph 69% 0.00 in 16 W/m2
17:12 33.0 °F 23.9 °F 29.92 in West 4.0 mph 5.0 mph 69% 0.00 in 12 W/m2
17:18 32.8 °F 24.1 °F 29.92 in West 4.0 mph 5.0 mph 70% 0.00 in 5 W/m2
17:24 32.5 °F 24.1 °F 29.92 in WSW 4.0 mph 4.0 mph 71% 0.00 in 0 W/m2
17:30 32.3 °F 24.3 °F 29.92 in WNW 3.0 mph 3.0 mph 72% 0.00 in 0 W/m2
17:35 32.1 °F 24.1 °F 29.93 in WSW 2.0 mph 3.0 mph 72% 0.00 in 0 W/m2
17:42 31.9 °F 24.2 °F 29.93 in WNW 3.0 mph 3.0 mph 73% 0.00 in 0 W/m2
17:48 31.6 °F 23.9 °F 29.93 in West 2.0 mph 3.0 mph 73% 0.00 in 0 W/m2
17:53 31.6 °F 23.9 °F 29.93 in West 1.0 mph 2.0 mph 73% 0.00 in 0 W/m2
17:59 31.6 °F 23.9 °F 29.94 in Calm   2.0 mph 73% 0.00 in 0 W/m2
18:06 31.5 °F 23.8 °F 29.95 in West 1.0 mph 2.0 mph 73% 0.00 in 0 W/m2
18:12 31.7 °F 23.7 °F 29.95 in WNW 2.0 mph 3.0 mph 72% 0.00 in 0 W/m2
18:18 31.8 °F 24.5 °F 29.95 in NW 4.0 mph 6.0 mph 74% 0.00 in 0 W/m2
18:24 31.8 °F 25.1 °F 29.95 in WNW 4.0 mph 4.0 mph 76% 0.00 in 0 W/m2
18:30 31.8 °F 25.4 °F 29.95 in NW 2.0 mph 2.0 mph 77% 0.00 in 0 W/m2
18:36 31.8 °F 25.7 °F 29.95 in NW 1.0 mph 3.0 mph 78% 0.00 in 0 W/m2
18:42 31.7 °F 26.5 °F 29.96 in NW 1.0 mph 3.0 mph 81% 0.00 in 0 W/m2
18:48 31.6 °F 26.7 °F 29.96 in NW 1.0 mph 3.0 mph 82% 0.00 in 0 W/m2
18:54 31.4 °F 27.1 °F 29.97 in WNW 2.0 mph 3.0 mph 84% 0.00 in 0 W/m2
19:00 30.9 °F 26.9 °F 29.97 in West 2.0 mph 4.0 mph 85% 0.00 in 0 W/m2
19:06 30.3 °F 26.6 °F 29.96 in West 4.0 mph 11.0 mph 86% 0.00 in 0 W/m2
19:12 30.1 °F 26.1 °F 29.96 in WSW 4.0 mph 4.0 mph 85% 0.00 in 0 W/m2
19:18 30.0 °F 26.0 °F 29.96 in SW 2.0 mph 5.0 mph 85% 0.00 in 0 W/m2
19:23 29.9 °F 25.9 °F 29.96 in SW 2.0 mph 4.0 mph 85% 0.00 in 0 W/m2
19:29 29.9 °F 25.7 °F 29.96 in SW 2.0 mph 2.0 mph 84% 0.00 in 0 W/m2
19:36 29.9 °F 25.4 °F 29.96 in West 2.0 mph 2.0 mph 83% 0.00 in 0 W/m2
19:42 29.9 °F 24.8 °F 29.97 in West 2.0 mph 4.0 mph 81% 0.00 in 0 W/m2
19:48 29.7 °F 24.6 °F 29.97 in WSW 2.0 mph 4.0 mph 81% 0.00 in 0 W/m2
19:54 29.6 °F 24.2 °F 29.97 in SW 2.0 mph 3.0 mph 80% 0.00 in 0 W/m2
19:59 29.4 °F 24.3 °F 29.96 in WSW 2.0 mph 2.0 mph 81% 0.00 in 0 W/m2
20:05 29.4 °F 24.3 °F 29.97 in WSW 2.0 mph 5.0 mph 81% 0.00 in 0 W/m2
20:12 29.6 °F 24.8 °F 29.97 in SW 2.0 mph 2.0 mph 82% 0.00 in 0 W/m2
20:18 29.6 °F 24.8 °F 29.97 in WSW 2.0 mph 2.0 mph 82% 0.00 in 0 W/m2
20:24 29.7 °F 24.9 °F 29.97 in WSW 2.0 mph 4.0 mph 82% 0.00 in 0 W/m2
20:30 29.7 °F 24.6 °F 29.97 in SW 2.0 mph 2.0 mph 81% 0.00 in 0 W/m2
20:35 29.7 °F 24.6 °F 29.97 in WSW 2.0 mph 2.0 mph 81% 0.00 in 0 W/m2
20:42 29.6 °F 24.5 °F 29.97 in WSW 1.0 mph 2.0 mph 81% 0.00 in 0 W/m2
20:48 29.6 °F 24.5 °F 29.98 in SSW 1.0 mph 2.0 mph 81% 0.00 in 0 W/m2
20:54 29.5 °F 24.1 °F 29.98 in West 2.0 mph 3.0 mph 80% 0.00 in 0 W/m2
21:00 29.6 °F 23.9 °F 29.98 in WSW 2.0 mph 6.0 mph 79% 0.00 in 0 W/m2
21:06 29.8 °F 23.5 °F 29.98 in WSW 3.0 mph 6.0 mph 77% 0.00 in 0 W/m2
21:12 29.9 °F 23.3 °F 29.97 in West 3.0 mph 5.0 mph 76% 0.00 in 0 W/m2
21:18 30.1 °F 23.1 °F 29.97 in WSW 4.0 mph 5.0 mph 75% 0.00 in 0 W/m2
21:24 30.2 °F 22.9 °F 29.97 in West 4.0 mph 4.0 mph 74% 0.00 in 0 W/m2
21:29 30.3 °F 22.7 °F 29.96 in West 4.0 mph 4.0 mph 73% 0.00 in 0 W/m2
21:36 30.4 °F 22.4 °F 29.96 in West 3.0 mph 4.0 mph 72% 0.00 in 0 W/m2
21:42 30.4 °F 22.4 °F 29.96 in WSW 2.0 mph 3.0 mph 72% 0.00 in 0 W/m2
21:48 30.5 °F 22.2 °F 29.96 in SW 2.0 mph 5.0 mph 71% 0.00 in 0 W/m2
21:53 30.8 °F 22.2 °F 29.96 in WSW 3.0 mph 6.0 mph 70% 0.00 in 0 W/m2
21:59 30.9 °F 22.3 °F 29.96 in WSW 4.0 mph 5.0 mph 70% 0.00 in 0 W/m2
22:05 30.9 °F 22.3 °F 29.96 in WSW 4.0 mph 5.0 mph 70% 0.00 in 0 W/m2
22:12 30.8 °F 21.8 °F 29.96 in WSW 3.0 mph 5.0 mph 69% 0.00 in 0 W/m2
22:18 30.8 °F 21.8 °F 29.95 in West 3.0 mph 7.0 mph 69% 0.00 in 0 W/m2
22:24 30.9 °F 21.9 °F 29.96 in WSW 4.0 mph 4.0 mph 69% 0.00 in 0 W/m2
22:30 30.7 °F 21.7 °F 29.95 in WSW 3.0 mph 3.0 mph 69% 0.00 in 0 W/m2
22:35 30.4 °F 21.4 °F 29.95 in SW 2.0 mph 3.0 mph 69% 0.00 in 0 W/m2
22:42 30.0 °F 21.1 °F 29.96 in SW 1.0 mph 4.0 mph 69% 0.00 in 0 W/m2
22:48 29.8 °F 21.2 °F 29.96 in SW 1.0 mph 4.0 mph 70% 0.00 in 0 W/m2
22:54 29.4 °F 20.8 °F 29.96 in West 1.0 mph 4.0 mph 70% 0.00 in 0 W/m2
22:59 29.3 °F 20.7 °F 29.96 in SW 1.0 mph 1.0 mph 70% 0.00 in 0 W/m2
23:05 29.3 °F 20.7 °F 29.96 in WSW 2.0 mph 2.0 mph 70% 0.00 in 0 W/m2
23:12 29.4 °F 20.8 °F 29.96 in WSW 2.0 mph 2.0 mph 70% 0.00 in 0 W/m2
23:18 29.2 °F 20.6 °F 29.96 in WSW 1.0 mph 4.0 mph 70% 0.00 in 0 W/m2
23:23 29.2 °F 20.6 °F 29.96 in West 2.0 mph 3.0 mph 70% 0.00 in 0 W/m2
23:30 29.2 °F 20.6 °F 29.96 in West 2.0 mph 2.0 mph 70% 0.00 in 0 W/m2
23:36 29.2 °F 20.6 °F 29.96 in West 2.0 mph 2.0 mph 70% 0.00 in 0 W/m2
23:42 29.1 °F 20.5 °F 29.96 in West 2.0 mph 3.0 mph 70% 0.00 in 0 W/m2
23:48 29.1 °F 20.5 °F 29.96 in West 2.0 mph 4.0 mph 70% 0.00 in 0 W/m2
23:53 28.9 °F 20.3 °F 29.96 in West 2.0 mph 4.0 mph 70% 0.00 in 0 W/m2
Country Meadow, Clay, NY, USA
Compliments of Weather Underground - 2 mb